Piracicaba, Brazil
Current Conditions -  °F | °C
As of 11:00 PM on Monday 26 Jan 2015 (Local Time) from SBKP Reporting Station
Light Rain Light Rain  
Wind Chill: 70°   Ceiling: 10000
Heat Index: 70°   Visibility: 6mi
Dew Point: 66°   Wind: 3mph
Humidity: 88%   Direction: 80°E
Pressure: 30.06"   Gusts: NA
Location:  22.71°S, 47.64°W
Report Text: SBKP 270100Z 08003KT 9999 -RA SCT020 SCT050 OVC100 21/19 Q1018 RETS
Loading
Personal Weather Stations






























Interactive Weather Map New forecast layout! Learn more

10-Day Weather Forecast

Advertisements
Track Severe Weather on mobile